createdAt,value
2022-08-04T00:00:42.630Z,96316.22
2022-08-04T00:03:12.900Z,96328.38
2022-08-04T00:05:43.201Z,96329.00
2022-08-04T00:08:14.687Z,96320.19
2022-08-04T00:10:42.685Z,96313.88
2022-08-04T00:13:10.343Z,96315.34
2022-08-04T00:15:40.332Z,96318.66
2022-08-04T00:18:10.082Z,96319.97
2022-08-04T00:20:39.418Z,96316.47
2022-08-04T00:23:07.409Z,96306.91
2022-08-04T00:25:35.713Z,96318.09
2022-08-04T00:28:06.680Z,96313.41
2022-08-04T00:30:40.063Z,96315.56
2022-08-04T00:33:15.176Z,96316.31
2022-08-04T00:35:42.906Z,96324.50
2022-08-04T00:38:10.600Z,96317.00
2022-08-04T00:40:43.437Z,96318.38
2022-08-04T00:43:13.930Z,96318.56
2022-08-04T00:46:16.413Z,96318.13
2022-08-04T00:48:53.230Z,96311.22
2022-08-04T00:51:25.960Z,96319.31
2022-08-04T00:53:58.660Z,96311.34
2022-08-04T00:56:38.118Z,96314.22
2022-08-04T00:59:08.774Z,96315.72
2022-08-04T01:01:47.159Z,96315.41
2022-08-04T01:04:22.019Z,96315.19
2022-08-04T01:06:58.877Z,96317.19
2022-08-04T01:09:28.291Z,96321.47
2022-08-04T01:12:05.182Z,96306.91
2022-08-04T01:14:39.114Z,96309.94
2022-08-04T01:17:12.853Z,96318.38
2022-08-04T01:19:55.063Z,96307.03
2022-08-04T01:22:37.951Z,96303.75
2022-08-04T01:25:13.949Z,96320.41
2022-08-04T01:27:51.037Z,96309.41
2022-08-04T01:30:23.186Z,96310.97
2022-08-04T01:32:54.302Z,96306.69
2022-08-04T01:35:46.703Z,96299.56
2022-08-04T01:38:21.339Z,96309.16
2022-08-04T01:40:49.620Z,96310.97
2022-08-04T01:43:17.297Z,96313.59
2022-08-04T01:45:46.867Z,96316.13
2022-08-04T01:48:14.459Z,96311.25
2022-08-04T01:50:42.276Z,96304.75
2022-08-04T01:53:10.013Z,96308.19
2022-08-04T01:55:51.897Z,96302.56
2022-08-04T01:58:23.552Z,96305.19
2022-08-04T02:01:06.625Z,96309.47
2022-08-04T02:04:19.703Z,96313.69
2022-08-04T02:06:27.389Z,96302.16
2022-08-04T02:08:57.411Z,96304.56
2022-08-04T02:11:25.017Z,96296.75
2022-08-04T02:13:55.769Z,96298.78
2022-08-04T02:16:30.597Z,96298.41
2022-08-04T02:19:05.358Z,96296.84
2022-08-04T02:21:42.431Z,96297.00
2022-08-04T02:24:18.063Z,96294.06
2022-08-04T02:26:47.020Z,96298.16
2022-08-04T02:29:15.130Z,96294.06
2022-08-04T02:31:47.606Z,96295.19
2022-08-04T02:34:20.305Z,96289.06
2022-08-04T02:36:47.934Z,96289.78
2022-08-04T02:39:15.612Z,96044.22
2022-08-04T02:41:46.177Z,96291.09
2022-08-04T02:44:13.942Z,96290.50
2022-08-04T02:46:46.438Z,96287.03
2022-08-04T02:49:15.614Z,96284.28
2022-08-04T02:51:44.964Z,96286.34
2022-08-04T02:54:12.938Z,96281.31
2022-08-04T02:56:40.867Z,96280.19
2022-08-04T02:59:13.723Z,96278.81
2022-08-04T03:01:56.656Z,96279.84
2022-08-04T03:04:42.456Z,96273.56
2022-08-04T03:07:23.077Z,96278.09
2022-08-04T03:10:07.017Z,96271.22
2022-08-04T03:12:49.969Z,96279.16
2022-08-04T03:15:31.039Z,96279.84
2022-08-04T03:18:19.887Z,96271.13
2022-08-04T03:21:08.113Z,96283.41
2022-08-04T03:23:52.975Z,96276.97
2022-08-04T03:26:25.425Z,96284.50
2022-08-04T03:29:09.210Z,96286.88
2022-08-04T03:31:57.806Z,96287.13
2022-08-04T03:34:32.377Z,96278.38
2022-08-04T03:37:14.543Z,96281.66
2022-08-04T03:39:53.736Z,96287.84
2022-08-04T03:42:32.371Z,96286.34
2022-08-04T03:45:20.580Z,96283.34
2022-08-04T03:48:07.202Z,96284.53
2022-08-04T03:50:42.583Z,96283.25
2022-08-04T03:53:14.749Z,96294.19
2022-08-04T03:56:01.390Z,96290.91
2022-08-04T03:58:35.301Z,96288.50
2022-08-04T04:01:08.325Z,96283.75
2022-08-04T04:03:57.098Z,96287.69
2022-08-04T04:06:54.064Z,96290.72
2022-08-04T04:12:37.032Z,96277.97
2022-08-04T04:15:24.948Z,96276.72
2022-08-04T04:18:16.269Z,96282.28
2022-08-04T04:21:02.876Z,96275.41
2022-08-04T04:23:41.287Z,96278.00
2022-08-04T04:26:18.386Z,96274.84
2022-08-04T04:28:53.222Z,96275.03
2022-08-04T04:31:38.784Z,96269.78
2022-08-04T04:34:09.823Z,96270.63
2022-08-04T04:36:39.107Z,96271.78
2022-08-04T04:39:10.216Z,96276.78
2022-08-04T04:41:42.527Z,96282.75
2022-08-04T04:44:15.687Z,96279.69
2022-08-04T04:46:44.911Z,96288.50
2022-08-04T04:49:16.246Z,96277.31
2022-08-04T04:51:45.237Z,96284.25
2022-08-04T04:54:16.524Z,96298.09
2022-08-04T04:56:50.853Z,96292.28
2022-08-04T04:59:20.800Z,96294.31
2022-08-04T05:02:12.869Z,96297.53
2022-08-04T05:04:58.339Z,96296.34
2022-08-04T05:07:36.245Z,96295.00
2022-08-04T05:10:05.062Z,96331.75
2022-08-04T05:14:35.372Z,96295.91
2022-08-04T05:15:41.426Z,96303.81
2022-08-04T05:18:09.586Z,96298.25
2022-08-04T05:20:42.084Z,96291.63
2022-08-04T05:23:12.587Z,96291.44
2022-08-04T05:25:40.592Z,96300.78
2022-08-04T05:28:10.063Z,96289.13
2022-08-04T05:30:38.472Z,96296.75
2022-08-04T05:33:08.971Z,96301.69
2022-08-04T05:36:17.108Z,96296.22
2022-08-04T05:38:32.265Z,96300.97
2022-08-04T05:41:00.356Z,96292.84
2022-08-04T05:43:28.587Z,96295.47
2022-08-04T05:45:57.914Z,96290.84
2022-08-04T05:48:25.969Z,96291.84
2022-08-04T05:50:56.522Z,96294.69
2022-08-04T05:53:29.815Z,96291.50
2022-08-04T05:55:59.664Z,96301.78
2022-08-04T05:58:28.057Z,96294.84
2022-08-04T06:00:56.743Z,96296.47
2022-08-04T06:03:24.548Z,96294.22
2022-08-04T06:05:52.161Z,96299.97
2022-08-04T06:08:20.270Z,96297.09
2022-08-04T06:10:50.714Z,96301.59
2022-08-04T06:13:47.453Z,96302.88
2022-08-04T06:16:07.629Z,96299.47
2022-08-04T06:19:59.026Z,96294.66
2022-08-04T06:21:24.709Z,96302.00
2022-08-04T06:23:53.648Z,96292.31
2022-08-04T06:26:27.711Z,96298.72
2022-08-04T06:28:55.626Z,96294.13
2022-08-04T06:32:27.363Z,96296.25
2022-08-04T06:34:32.620Z,96294.84
2022-08-04T06:37:00.622Z,96303.00
2022-08-04T06:39:28.386Z,96299.28
2022-08-04T06:42:20.694Z,96303.34
2022-08-04T06:44:47.626Z,96298.53
2022-08-04T06:47:19.456Z,96302.00
2022-08-04T06:51:25.651Z,96319.78
2022-08-04T06:52:27.756Z,96305.16
2022-08-04T06:54:55.827Z,96306.41
2022-08-04T06:57:26.539Z,96310.06
2022-08-04T06:59:57.004Z,96311.22
2022-08-04T07:02:25.647Z,96304.63
2022-08-04T07:04:56.013Z,96308.56
2022-08-04T07:07:36.660Z,96310.94
2022-08-04T07:10:05.095Z,96309.84
2022-08-04T07:12:38.720Z,96318.25
2022-08-04T07:15:07.299Z,96309.19
2022-08-04T07:17:36.610Z,96304.31
2022-08-04T07:20:08.036Z,96306.38
2022-08-04T07:22:37.481Z,96301.63
2022-08-04T07:25:12.731Z,96299.91
2022-08-04T07:27:48.471Z,96303.56
2022-08-04T07:30:18.839Z,96308.31
2022-08-04T07:32:54.185Z,96308.63
2022-08-04T07:36:05.027Z,96298.50
2022-08-04T07:38:11.872Z,96291.34
2022-08-04T07:40:39.962Z,96307.31
2022-08-04T07:43:09.867Z,96295.59
2022-08-04T07:45:37.833Z,96297.03
2022-08-04T07:48:06.992Z,96294.25
2022-08-04T07:50:35.292Z,96299.00
2022-08-04T07:53:55.409Z,96293.75
2022-08-04T07:55:55.533Z,96306.13
2022-08-04T07:58:29.645Z,96303.53
2022-08-04T08:01:03.156Z,96293.09
2022-08-04T08:03:31.133Z,96297.78
2022-08-04T08:06:17.787Z,96298.34
2022-08-04T08:08:46.755Z,96290.25
2022-08-04T08:11:15.184Z,96292.50
2022-08-04T08:13:45.478Z,96300.47
2022-08-04T08:16:15.771Z,96286.34
2022-08-04T08:18:49.666Z,96293.59
2022-08-04T08:21:20.504Z,96293.59
2022-08-04T08:23:50.674Z,96293.56
2022-08-04T08:26:18.725Z,96296.66
2022-08-04T08:28:49.173Z,96292.81
2022-08-04T08:31:17.110Z,96291.22
2022-08-04T08:33:46.949Z,96289.19
2022-08-04T08:36:17.146Z,96288.75
2022-08-04T08:38:46.758Z,96277.41
2022-08-04T08:41:41.661Z,96285.63
2022-08-04T08:44:19.048Z,96284.78
2022-08-04T08:46:55.658Z,96287.59
2022-08-04T08:50:00.553Z,96287.84
2022-08-04T08:52:57.342Z,96286.03
2022-08-04T08:55:28.348Z,96296.50
2022-08-04T08:58:08.148Z,96292.50
2022-08-04T09:00:42.715Z,96293.03
2022-08-04T09:03:38.124Z,96288.38
2022-08-04T09:06:11.430Z,96284.13
2022-08-04T09:08:43.810Z,96283.84
2022-08-04T09:11:14.628Z,96284.47
2022-08-04T09:13:44.046Z,96285.16
2022-08-04T09:16:16.013Z,96284.84
2022-08-04T09:18:50.715Z,96285.47
2022-08-04T09:21:19.056Z,96291.91
2022-08-04T09:23:48.514Z,96287.25
2022-08-04T09:26:20.520Z,96291.34
2022-08-04T09:28:54.008Z,96289.66
2022-08-04T09:31:29.273Z,96294.66
2022-08-04T09:34:18.988Z,96286.34
2022-08-04T09:36:58.060Z,96281.47
2022-08-04T09:39:27.841Z,96280.25
2022-08-04T09:42:13.003Z,96283.63
2022-08-04T09:44:51.365Z,96273.28
2022-08-04T09:47:39.337Z,96272.63
2022-08-04T09:50:22.083Z,96274.13
2022-08-04T09:52:51.819Z,96280.03
2022-08-04T09:55:20.890Z,96270.47
2022-08-04T09:57:57.528Z,96274.47
2022-08-04T10:00:40.595Z,96273.00
2022-08-04T10:03:11.139Z,96264.53
2022-08-04T10:05:47.106Z,96263.78
2022-08-04T10:08:19.044Z,96264.50
2022-08-04T10:10:49.253Z,96006.81
2022-08-04T10:13:23.247Z,96259.38
2022-08-04T10:15:54.416Z,96256.34
2022-08-04T10:18:27.227Z,96251.50
2022-08-04T10:21:07.859Z,96253.66
2022-08-04T10:23:56.274Z,96245.59
2022-08-04T10:26:30.941Z,96243.22
2022-08-04T10:29:00.496Z,96252.19
2022-08-04T10:31:29.511Z,96245.41
2022-08-04T10:34:00.297Z,96247.06
2022-08-04T10:36:29.173Z,96249.03
2022-08-04T10:38:59.322Z,96241.13
2022-08-04T10:41:32.123Z,96241.13
2022-08-04T10:44:03.260Z,96237.28
2022-08-04T10:46:33.130Z,96232.41
2022-08-04T10:49:04.810Z,96236.16
2022-08-04T10:51:57.733Z,96240.09
2022-08-04T10:54:31.418Z,96244.94
2022-08-04T10:57:01.212Z,96246.03
2022-08-04T10:59:29.940Z,96241.38
2022-08-04T11:02:03.712Z,96240.63
2022-08-04T11:04:37.126Z,96248.53
2022-08-04T11:07:05.355Z,96255.22
2022-08-04T11:09:33.471Z,96252.69
2022-08-04T11:12:06.678Z,96251.28
2022-08-04T11:14:36.184Z,96250.91
2022-08-04T11:17:05.754Z,96220.63
2022-08-04T11:19:45.015Z,96108.38
2022-08-04T11:22:17.755Z,96252.59
2022-08-04T11:24:46.125Z,96251.47
2022-08-04T11:27:15.299Z,96254.25
2022-08-04T11:29:51.691Z,96246.72
2022-08-04T11:32:20.070Z,96250.59
2022-08-04T11:34:53.118Z,96242.66
2022-08-04T11:37:24.505Z,96248.06
2022-08-04T11:39:54.611Z,96243.63
2022-08-04T11:42:25.715Z,96248.78
2022-08-04T11:44:54.270Z,96247.31
2022-08-04T11:47:30.307Z,96239.72
2022-08-04T11:50:02.673Z,96069.56
2022-08-04T11:52:30.462Z,96245.81
2022-08-04T11:54:59.099Z,96253.09
2022-08-04T11:57:35.616Z,96239.25
2022-08-04T12:00:12.077Z,96227.78
2022-08-04T12:02:55.600Z,96226.13
2022-08-04T12:05:37.065Z,96228.13
2022-08-04T12:08:13.059Z,96235.75
2022-08-04T12:10:43.513Z,96228.41
2022-08-04T12:13:23.069Z,96226.38
2022-08-04T12:15:54.776Z,96229.34
2022-08-04T12:18:24.694Z,96225.53
2022-08-04T12:20:57.366Z,96235.44
2022-08-04T12:23:27.772Z,96238.97
2022-08-04T12:25:58.489Z,96239.63
2022-08-04T12:28:28.272Z,96239.16
2022-08-04T12:31:04.247Z,96259.88
2022-08-04T12:34:03.274Z,96227.44
2022-08-04T12:36:26.763Z,96229.03
2022-08-04T12:39:01.380Z,96219.66
2022-08-04T12:41:31.102Z,96226.50
2022-08-04T12:44:07.549Z,96219.22
2022-08-04T12:46:56.076Z,96224.19
2022-08-04T12:49:48.117Z,96216.94
2022-08-04T12:53:01.698Z,96226.59
2022-08-04T12:55:26.757Z,96222.16
2022-08-04T12:57:54.723Z,96215.41
2022-08-04T13:00:33.141Z,96208.63
2022-08-04T13:03:09.590Z,96207.44
2022-08-04T13:05:39.319Z,96208.66
2022-08-04T13:08:08.617Z,96209.44
2022-08-04T13:10:38.997Z,96209.56
2022-08-04T13:13:06.828Z,96210.19
2022-08-04T13:15:47.390Z,96209.88
2022-08-04T13:18:28.865Z,96204.47
2022-08-04T13:20:57.959Z,96206.34
2022-08-04T13:23:27.981Z,96212.41
2022-08-04T13:26:42.584Z,96202.44
2022-08-04T13:29:16.587Z,96201.03
2022-08-04T13:31:45.115Z,96199.88
2022-08-04T13:34:21.909Z,96190.09
2022-08-04T13:36:50.963Z,96186.03
2022-08-04T13:39:21.722Z,96190.81
2022-08-04T13:41:58.961Z,96189.50
2022-08-04T13:44:30.028Z,96182.09
2022-08-04T13:47:02.087Z,96171.69
2022-08-04T13:49:42.907Z,96177.22
2022-08-04T13:52:19.567Z,96172.03
2022-08-04T13:54:53.584Z,96168.94
2022-08-04T13:57:29.300Z,96171.13
2022-08-04T13:59:59.109Z,96169.81
2022-08-04T14:02:27.662Z,96174.56
2022-08-04T14:04:58.172Z,96159.16
2022-08-04T14:07:29.164Z,96163.28
2022-08-04T14:10:03.138Z,96166.72
2022-08-04T14:12:38.890Z,96160.56
2022-08-04T14:16:01.752Z,96160.38
2022-08-04T14:18:22.175Z,96155.31
2022-08-04T14:20:59.348Z,96151.66
2022-08-04T14:23:31.731Z,96142.56
2022-08-04T14:26:03.286Z,96147.81
2022-08-04T14:29:09.615Z,96149.03
2022-08-04T14:31:19.904Z,96151.56
2022-08-04T14:34:04.199Z,96142.28
2022-08-04T14:37:16.181Z,96143.34
2022-08-04T14:39:39.442Z,96142.06
2022-08-04T14:42:09.438Z,96137.44
2022-08-04T14:44:54.481Z,96140.19
2022-08-04T14:47:40.734Z,96138.28
2022-08-04T14:50:09.443Z,96131.94
2022-08-04T14:52:37.611Z,96138.22
2022-08-04T14:55:18.208Z,96130.28
2022-08-04T14:58:34.687Z,96144.53
2022-08-04T15:00:37.924Z,96140.97
2022-08-04T15:03:07.128Z,96138.00
2022-08-04T15:05:59.764Z,96128.22
2022-08-04T15:08:24.750Z,96125.38
2022-08-04T15:11:01.832Z,96125.09
2022-08-04T15:13:35.057Z,96125.09
2022-08-04T15:16:08.500Z,96126.66
2022-08-04T15:18:37.384Z,96127.56
2022-08-04T15:21:05.456Z,96129.22
2022-08-04T15:23:39.746Z,96129.09
2022-08-04T15:26:08.147Z,96125.50
2022-08-04T15:28:38.255Z,96127.13
2022-08-04T15:31:10.503Z,96125.44
2022-08-04T15:33:55.690Z,96130.97
2022-08-04T15:36:24.027Z,96128.06
2022-08-04T15:38:53.642Z,96128.88
2022-08-04T15:41:24.602Z,96123.25
2022-08-04T15:43:56.347Z,96124.59
2022-08-04T15:46:44.407Z,96109.38
2022-08-04T15:49:22.084Z,96115.75
2022-08-04T15:51:50.359Z,96109.13
2022-08-04T15:54:30.761Z,96113.34
2022-08-04T15:57:02.497Z,96105.09
2022-08-04T15:59:50.044Z,96109.41
2022-08-04T16:02:32.698Z,96104.09
2022-08-04T16:05:30.051Z,96103.25
2022-08-04T16:08:04.767Z,96102.97
2022-08-04T16:10:39.267Z,96099.97
2022-08-04T16:13:14.487Z,96096.06
2022-08-04T16:15:47.211Z,96095.34
2022-08-04T16:18:26.281Z,96087.94
2022-08-04T16:20:58.727Z,96096.09
2022-08-04T16:23:54.098Z,96090.84
2022-08-04T16:26:45.332Z,96092.63
2022-08-04T16:29:41.323Z,96090.06
2022-08-04T16:32:10.758Z,96083.25
2022-08-04T16:34:49.261Z,96087.41
2022-08-04T16:37:23.331Z,96085.66
2022-08-04T16:39:52.448Z,96078.47
2022-08-04T16:42:38.795Z,96078.06
2022-08-04T16:45:15.840Z,96080.41
2022-08-04T16:48:01.897Z,96084.84
2022-08-04T16:50:29.893Z,96069.00
2022-08-04T16:52:58.999Z,96075.03
2022-08-04T16:55:27.596Z,96073.50
2022-08-04T16:57:58.828Z,96076.38
2022-08-04T17:00:30.788Z,96069.06
2022-08-04T17:03:01.166Z,96065.88
2022-08-04T17:05:38.507Z,96068.06
2022-08-04T17:10:57.022Z,96059.56
2022-08-04T17:14:02.599Z,96062.19
2022-08-04T17:16:17.860Z,96063.75
2022-08-04T17:18:47.044Z,96062.88
2022-08-04T17:21:15.346Z,96062.63
2022-08-04T17:24:12.584Z,96061.81
2022-08-04T17:26:39.749Z,96070.03
2022-08-04T17:29:09.021Z,96064.84
2022-08-04T17:31:37.784Z,96059.75
2022-08-04T17:34:15.559Z,96064.34
2022-08-04T17:36:44.033Z,96053.53
2022-08-04T17:39:16.969Z,96056.06
2022-08-04T17:41:48.678Z,96065.59
2022-08-04T17:44:21.878Z,96062.25
2022-08-04T17:46:50.517Z,96060.19
2022-08-04T17:49:21.792Z,96065.22
2022-08-04T17:52:04.221Z,96060.91
2022-08-04T17:54:37.359Z,96069.47
2022-08-04T17:57:14.715Z,96066.00
2022-08-04T17:59:52.878Z,96062.50
2022-08-04T18:02:36.653Z,96070.25
2022-08-04T18:05:12.318Z,96072.56
2022-08-04T18:08:34.668Z,96078.31
2022-08-04T18:10:55.844Z,96077.00
2022-08-04T18:13:25.584Z,96076.78
2022-08-04T18:16:02.660Z,96083.38
2022-08-04T18:18:30.628Z,96075.03
2022-08-04T18:21:03.208Z,96080.97
2022-08-04T18:23:34.336Z,96083.00
2022-08-04T18:26:14.559Z,96087.94
2022-08-04T18:28:42.904Z,96082.31
2022-08-04T18:31:10.565Z,96081.84
2022-08-04T18:33:42.214Z,96093.91
2022-08-04T18:36:35.600Z,96091.44
2022-08-04T18:39:13.064Z,96088.47
2022-08-04T18:42:02.596Z,96095.25
2022-08-04T18:44:49.325Z,96092.09
2022-08-04T18:47:23.025Z,96092.19
2022-08-04T18:50:59.380Z,96095.38
2022-08-04T18:55:56.756Z,96102.50
2022-08-04T18:58:27.399Z,96098.78
2022-08-04T19:00:55.891Z,96093.66
2022-08-04T19:03:24.215Z,96100.88
2022-08-04T19:05:52.034Z,96096.53
2022-08-04T19:08:34.333Z,96102.47
2022-08-04T19:11:36.833Z,96101.53
2022-08-04T19:13:54.477Z,96112.44
2022-08-04T19:16:31.403Z,96103.56
2022-08-04T19:19:00.500Z,96110.63
2022-08-04T19:21:59.223Z,96112.09
2022-08-04T19:24:32.611Z,96112.75
2022-08-04T19:27:06.423Z,96120.13
2022-08-04T19:29:41.175Z,96127.88
2022-08-04T19:32:13.989Z,96117.44
2022-08-04T19:34:45.664Z,96118.56
2022-08-04T19:37:56.074Z,96127.31
2022-08-04T19:40:02.867Z,96130.34
2022-08-04T19:42:33.517Z,96119.41
2022-08-04T19:45:02.619Z,96135.34
2022-08-04T19:48:12.123Z,96135.53
2022-08-04T19:50:23.766Z,96142.16
2022-08-04T19:52:52.586Z,96138.38
2022-08-04T19:55:22.496Z,96138.78
2022-08-04T19:57:51.103Z,96147.56
2022-08-04T20:00:33.336Z,96151.06
2022-08-04T20:03:03.183Z,96155.94
2022-08-04T20:05:52.739Z,96150.03
2022-08-04T20:08:20.033Z,96157.63
2022-08-04T20:10:51.824Z,96151.97
2022-08-04T20:13:20.163Z,96147.78
2022-08-04T20:18:54.911Z,96153.31
2022-08-04T20:21:53.744Z,96155.66
2022-08-04T20:24:40.530Z,96140.81
2022-08-04T20:27:07.569Z,96147.22
2022-08-04T20:29:40.058Z,96148.19
2022-08-04T20:32:10.371Z,96154.50
2022-08-04T20:34:41.373Z,96150.06
2022-08-04T20:37:10.410Z,96160.63
2022-08-04T20:39:43.723Z,96152.34
2022-08-04T20:42:12.352Z,96147.25
2022-08-04T20:44:42.110Z,96152.03
2022-08-04T20:47:16.349Z,96155.91
2022-08-04T20:49:46.255Z,96156.47
2022-08-04T20:52:20.264Z,96155.75
2022-08-04T20:54:49.212Z,96159.28
2022-08-04T20:57:48.499Z,96149.22
2022-08-04T21:00:15.005Z,96152.72
2022-08-04T21:02:44.561Z,96149.22
2022-08-04T21:05:12.706Z,96147.25
2022-08-04T21:07:41.753Z,96146.09
2022-08-04T21:10:11.699Z,96167.16
2022-08-04T21:12:40.902Z,96144.91
2022-08-04T21:15:13.650Z,96144.94
2022-08-04T21:17:58.561Z,96139.88
2022-08-04T21:20:31.385Z,96137.91
2022-08-04T21:23:02.234Z,96141.41
2022-08-04T21:25:31.738Z,96137.13
2022-08-04T21:28:04.008Z,96139.06
2022-08-04T21:30:32.899Z,96137.91
2022-08-04T21:33:22.119Z,96127.38
2022-08-04T21:35:54.278Z,96140.63
2022-08-04T21:38:28.220Z,96138.69
2022-08-04T21:40:57.253Z,96143.00
2022-08-04T21:43:27.402Z,96137.88
2022-08-04T21:46:03.826Z,96142.16
2022-08-04T21:48:34.875Z,96133.41
2022-08-04T21:51:57.455Z,96135.41
2022-08-04T21:54:05.630Z,96133.38
2022-08-04T21:56:33.783Z,96133.00
2022-08-04T21:59:05.660Z,96128.72
2022-08-04T22:01:52.378Z,96130.72
2022-08-04T22:04:25.289Z,96126.75
2022-08-04T22:06:53.466Z,96135.66
2022-08-04T22:09:22.398Z,96138.88
2022-08-04T22:11:51.557Z,96142.91
2022-08-04T22:14:28.937Z,96143.91
2022-08-04T22:17:02.016Z,96140.63
2022-08-04T22:19:50.085Z,96139.94
2022-08-04T22:22:24.620Z,96139.25
2022-08-04T22:24:54.136Z,96141.72
2022-08-04T22:27:35.762Z,96137.31
2022-08-04T22:30:08.156Z,96144.56
2022-08-04T22:32:41.154Z,96135.56
2022-08-04T22:35:30.939Z,96131.81
2022-08-04T22:38:07.222Z,96132.03
2022-08-04T22:40:43.002Z,96127.66
2022-08-04T22:43:32.069Z,96130.34
2022-08-04T22:46:02.063Z,96122.28
2022-08-04T22:48:31.978Z,96126.75
2022-08-04T22:51:01.587Z,96119.97
2022-08-04T22:53:30.597Z,96119.56
2022-08-04T22:56:09.264Z,96114.53
2022-08-04T22:58:40.251Z,96125.84
2022-08-04T23:01:08.525Z,96121.72
2022-08-04T23:03:38.378Z,96125.94
2022-08-04T23:06:11.718Z,96121.03
2022-08-04T23:08:43.246Z,96123.94
2022-08-04T23:11:14.710Z,96123.91
2022-08-04T23:13:43.813Z,96123.47
2022-08-04T23:16:12.410Z,96119.22
2022-08-04T23:18:42.465Z,96113.25
2022-08-04T23:21:17.471Z,96110.44
2022-08-04T23:24:00.885Z,96112.97
2022-08-04T23:26:32.546Z,96106.44
2022-08-04T23:29:03.568Z,96103.25
2022-08-04T23:31:40.498Z,96107.81
2022-08-04T23:34:09.183Z,96103.75
2022-08-04T23:36:43.814Z,96107.03
2022-08-04T23:39:17.762Z,96100.81
2022-08-04T23:41:54.589Z,96110.34
2022-08-04T23:44:27.055Z,96112.56
2022-08-04T23:46:58.680Z,95883.00
2022-08-04T23:49:44.515Z,96112.72
2022-08-04T23:52:23.481Z,96111.91
2022-08-04T23:54:58.258Z,96110.78
2022-08-04T23:57:31.001Z,96118.47
